Miami, Florida
Traffic Map
Current Weather Conditions
Miami, Florida
Broken Clouds
Broken Clouds
81°
Feels Like: 87°
Wind Chill: 81° Ceiling: 25000
Heat Index: 87° Visibility: 10mi
Dew Point: 75° Wind: 5mph
Humidity: 82% Direction: 220° (SW)
Pressure: 30.02in Gusts: 0mph
Raw Report DataKMIA 301153Z 22004KT 10SM FEW024TCU FEW050 SCT070 BKN250 27/24 A3002 RMK AO2 RAE1056 SLP165 CB DSNT SE TCU NE P0000 60001 70002 T02720239 10272 20256 53013
Traffic Incident Summary
Active as of:
Severity:
Category:
InformationThere was an issue retrieving the traffic information for this location. Please try a different location or try again shortly.
Advertisements
Track Severe Weather on mobile